sensor_id;sensor_type;location;lat;lon;timestamp;P1;durP1;ratioP1;P2;durP2;ratioP2
56824;SDS011;42705;50.326;18.772;2024-03-02T00:00:56;85.30;;;41.10;;
56824;SDS011;42705;50.326;18.772;2024-03-02T00:06:38;81.30;;;39.60;;
56824;SDS011;42705;50.326;18.772;2024-03-02T00:12:00;81.20;;;42.70;;
56824;SDS011;42705;50.326;18.772;2024-03-02T00:17:24;84.30;;;41.20;;
56824;SDS011;42705;50.326;18.772;2024-03-02T00:23:03;75.20;;;39.00;;
56824;SDS011;42705;50.326;18.772;2024-03-02T00:28:27;71.10;;;38.00;;
56824;SDS011;42705;50.326;18.772;2024-03-02T00:33:55;81.30;;;39.80;;
56824;SDS011;42705;50.326;18.772;2024-03-02T00:39:17;78.90;;;38.00;;
56824;SDS011;42705;50.326;18.772;2024-03-02T00:44:39;75.20;;;37.70;;
56824;SDS011;42705;50.326;18.772;2024-03-02T00:50:02;71.30;;;36.40;;
56824;SDS011;42705;50.326;18.772;2024-03-02T00:55:25;75.20;;;38.80;;
56824;SDS011;42705;50.326;18.772;2024-03-02T01:00:47;74.00;;;37.20;;
56824;SDS011;42705;50.326;18.772;2024-03-02T01:06:09;69.80;;;36.10;;
56824;SDS011;42705;50.326;18.772;2024-03-02T01:11:30;72.10;;;36.30;;
56824;SDS011;42705;50.326;18.772;2024-03-02T01:16:53;67.00;;;34.10;;
56824;SDS011;42705;50.326;18.772;2024-03-02T01:22:15;67.40;;;34.30;;
56824;SDS011;42705;50.326;18.772;2024-03-02T01:27:38;70.00;;;34.60;;
56824;SDS011;42705;50.326;18.772;2024-03-02T01:33:01;66.00;;;34.40;;
56824;SDS011;42705;50.326;18.772;2024-03-02T01:38:24;59.50;;;30.70;;
56824;SDS011;42705;50.326;18.772;2024-03-02T01:43:45;68.20;;;35.40;;
56824;SDS011;42705;50.326;18.772;2024-03-02T01:49:07;69.80;;;36.00;;
56824;SDS011;42705;50.326;18.772;2024-03-02T01:54:30;69.70;;;37.00;;
56824;SDS011;42705;50.326;18.772;2024-03-02T01:59:52;77.10;;;39.70;;
56824;SDS011;42705;50.326;18.772;2024-03-02T02:10:37;71.30;;;37.50;;
56824;SDS011;42705;50.326;18.772;2024-03-02T02:16:08;68.20;;;36.50;;
56824;SDS011;42705;50.326;18.772;2024-03-02T02:21:30;65.40;;;34.10;;
56824;SDS011;42705;50.326;18.772;2024-03-02T02:26:52;65.20;;;35.60;;
56824;SDS011;42705;50.326;18.772;2024-03-02T02:32:14;68.80;;;35.50;;
56824;SDS011;42705;50.326;18.772;2024-03-02T02:38:08;55.50;;;31.60;;
56824;SDS011;42705;50.326;18.772;2024-03-02T02:43:30;66.40;;;34.20;;
56824;SDS011;42705;50.326;18.772;2024-03-02T02:48:52;61.20;;;34.30;;
56824;SDS011;42705;50.326;18.772;2024-03-02T02:54:16;67.00;;;34.30;;
56824;SDS011;42705;50.326;18.772;2024-03-02T02:59:39;62.70;;;32.10;;
56824;SDS011;42705;50.326;18.772;2024-03-02T03:05:01;60.40;;;31.50;;
56824;SDS011;42705;50.326;18.772;2024-03-02T03:10:23;64.40;;;33.90;;
56824;SDS011;42705;50.326;18.772;2024-03-02T03:15:47;61.10;;;34.60;;
56824;SDS011;42705;50.326;18.772;2024-03-02T03:21:09;56.80;;;32.10;;
56824;SDS011;42705;50.326;18.772;2024-03-02T03:26:31;65.40;;;33.40;;
56824;SDS011;42705;50.326;18.772;2024-03-02T03:31:53;65.10;;;33.80;;
56824;SDS011;42705;50.326;18.772;2024-03-02T03:37:14;56.20;;;30.60;;
56824;SDS011;42705;50.326;18.772;2024-03-02T03:42:37;63.80;;;33.10;;
56824;SDS011;42705;50.326;18.772;2024-03-02T03:48:00;62.40;;;32.40;;
56824;SDS011;42705;50.326;18.772;2024-03-02T03:53:22;59.30;;;31.40;;
56824;SDS011;42705;50.326;18.772;2024-03-02T03:58:44;59.70;;;30.40;;
56824;SDS011;42705;50.326;18.772;2024-03-02T04:04:06;58.80;;;31.10;;
56824;SDS011;42705;50.326;18.772;2024-03-02T04:09:28;53.90;;;30.10;;
56824;SDS011;42705;50.326;18.772;2024-03-02T04:14:50;49.00;;;27.80;;
56824;SDS011;42705;50.326;18.772;2024-03-02T04:20:12;50.30;;;27.10;;
56824;SDS011;42705;50.326;18.772;2024-03-02T04:25:34;48.70;;;27.40;;
56824;SDS011;42705;50.326;18.772;2024-03-02T04:30:56;49.20;;;27.40;;
56824;SDS011;42705;50.326;18.772;2024-03-02T04:36:18;47.40;;;26.10;;
56824;SDS011;42705;50.326;18.772;2024-03-02T04:41:40;44.30;;;25.10;;
56824;SDS011;42705;50.326;18.772;2024-03-02T04:47:01;50.20;;;26.90;;
56824;SDS011;42705;50.326;18.772;2024-03-02T04:52:24;48.00;;;26.80;;
56824;SDS011;42705;50.326;18.772;2024-03-02T04:57:45;48.60;;;26.60;;
56824;SDS011;42705;50.326;18.772;2024-03-02T05:03:09;53.20;;;28.40;;
56824;SDS011;42705;50.326;18.772;2024-03-02T05:08:31;49.60;;;28.00;;
56824;SDS011;42705;50.326;18.772;2024-03-02T05:13:52;46.90;;;26.40;;
56824;SDS011;42705;50.326;18.772;2024-03-02T05:19:14;52.10;;;25.10;;
56824;SDS011;42705;50.326;18.772;2024-03-02T05:24:36;49.50;;;26.90;;
56824;SDS011;42705;50.326;18.772;2024-03-02T05:29:58;52.60;;;27.40;;
56824;SDS011;42705;50.326;18.772;2024-03-02T05:35:21;54.20;;;28.70;;
56824;SDS011;42705;50.326;18.772;2024-03-02T05:40:43;50.80;;;26.40;;
56824;SDS011;42705;50.326;18.772;2024-03-02T05:46:05;52.70;;;26.90;;
56824;SDS011;42705;50.326;18.772;2024-03-02T05:51:27;53.10;;;27.10;;
56824;SDS011;42705;50.326;18.772;2024-03-02T05:56:49;50.80;;;28.20;;
56824;SDS011;42705;50.326;18.772;2024-03-02T06:02:10;44.30;;;25.30;;
56824;SDS011;42705;50.326;18.772;2024-03-02T06:07:32;49.30;;;26.90;;
56824;SDS011;42705;50.326;18.772;2024-03-02T06:12:54;58.70;;;27.70;;
56824;SDS011;42705;50.326;18.772;2024-03-02T06:18:16;49.10;;;26.40;;
56824;SDS011;42705;50.326;18.772;2024-03-02T06:23:38;46.30;;;25.90;;
56824;SDS011;42705;50.326;18.772;2024-03-02T06:29:00;50.20;;;27.10;;
56824;SDS011;42705;50.326;18.772;2024-03-02T06:34:24;48.80;;;26.80;;
56824;SDS011;42705;50.326;18.772;2024-03-02T06:39:45;52.70;;;27.70;;
56824;SDS011;42705;50.326;18.772;2024-03-02T06:45:07;51.00;;;27.00;;
56824;SDS011;42705;50.326;18.772;2024-03-02T06:50:29;51.90;;;26.60;;
56824;SDS011;42705;50.326;18.772;2024-03-02T06:55:51;50.90;;;29.30;;
56824;SDS011;42705;50.326;18.772;2024-03-02T07:01:13;58.60;;;29.80;;
56824;SDS011;42705;50.326;18.772;2024-03-02T07:06:35;49.40;;;28.30;;
56824;SDS011;42705;50.326;18.772;2024-03-02T07:11:58;49.80;;;30.30;;
56824;SDS011;42705;50.326;18.772;2024-03-02T07:17:20;57.20;;;32.50;;
56824;SDS011;42705;50.326;18.772;2024-03-02T07:22:41;55.50;;;29.90;;
56824;SDS011;42705;50.326;18.772;2024-03-02T07:28:03;59.00;;;32.50;;
56824;SDS011;42705;50.326;18.772;2024-03-02T07:33:26;62.40;;;37.40;;
56824;SDS011;42705;50.326;18.772;2024-03-02T07:38:48;64.80;;;35.70;;
56824;SDS011;42705;50.326;18.772;2024-03-02T07:44:12;58.00;;;32.90;;
56824;SDS011;42705;50.326;18.772;2024-03-02T07:49:37;57.80;;;31.80;;
56824;SDS011;42705;50.326;18.772;2024-03-02T07:55:00;59.20;;;33.50;;
56824;SDS011;42705;50.326;18.772;2024-03-02T08:00:22;60.90;;;36.40;;
56824;SDS011;42705;50.326;18.772;2024-03-02T08:05:45;61.90;;;35.00;;
56824;SDS011;42705;50.326;18.772;2024-03-02T08:16:29;54.80;;;30.10;;
56824;SDS011;42705;50.326;18.772;2024-03-02T08:21:51;49.60;;;30.40;;
56824;SDS011;42705;50.326;18.772;2024-03-02T08:27:13;45.10;;;27.60;;
56824;SDS011;42705;50.326;18.772;2024-03-02T08:37:58;46.60;;;27.60;;
56824;SDS011;42705;50.326;18.772;2024-03-02T08:43:20;46.70;;;27.80;;
56824;SDS011;42705;50.326;18.772;2024-03-02T08:48:44;45.80;;;27.50;;
56824;SDS011;42705;50.326;18.772;2024-03-02T08:54:06;43.10;;;26.00;;
56824;SDS011;42705;50.326;18.772;2024-03-02T08:59:28;51.10;;;27.10;;
56824;SDS011;42705;50.326;18.772;2024-03-02T09:04:50;43.50;;;26.10;;
56824;SDS011;42705;50.326;18.772;2024-03-02T09:10:16;46.00;;;27.60;;
56824;SDS011;42705;50.326;18.772;2024-03-02T09:15:38;63.70;;;32.80;;
56824;SDS011;42705;50.326;18.772;2024-03-02T09:21:01;50.30;;;28.90;;
56824;SDS011;42705;50.326;18.772;2024-03-02T09:26:23;42.20;;;26.40;;
56824;SDS011;42705;50.326;18.772;2024-03-02T09:31:46;56.60;;;29.90;;
56824;SDS011;42705;50.326;18.772;2024-03-02T09:37:08;50.80;;;27.80;;
56824;SDS011;42705;50.326;18.772;2024-03-02T09:42:30;46.80;;;28.50;;
56824;SDS011;42705;50.326;18.772;2024-03-02T09:47:54;69.10;;;32.80;;
56824;SDS011;42705;50.326;18.772;2024-03-02T09:53:16;75.40;;;38.90;;
56824;SDS011;42705;50.326;18.772;2024-03-02T09:58:39;50.60;;;26.50;;
56824;SDS011;42705;50.326;18.772;2024-03-02T10:04:01;45.90;;;24.20;;
56824;SDS011;42705;50.326;18.772;2024-03-02T10:09:27;44.30;;;24.20;;
56824;SDS011;42705;50.326;18.772;2024-03-02T10:15:02;43.30;;;25.90;;
56824;SDS011;42705;50.326;18.772;2024-03-02T10:20:26;44.70;;;25.60;;
56824;SDS011;42705;50.326;18.772;2024-03-02T10:25:54;45.80;;;27.40;;
56824;SDS011;42705;50.326;18.772;2024-03-02T10:31:15;54.40;;;28.50;;
56824;SDS011;42705;50.326;18.772;2024-03-02T10:36:40;52.10;;;28.90;;
56824;SDS011;42705;50.326;18.772;2024-03-02T10:42:03;53.00;;;31.60;;
56824;SDS011;42705;50.326;18.772;2024-03-02T10:47:27;47.20;;;26.30;;
56824;SDS011;42705;50.326;18.772;2024-03-02T10:52:53;50.40;;;28.00;;
56824;SDS011;42705;50.326;18.772;2024-03-02T10:58:15;63.00;;;34.40;;
56824;SDS011;42705;50.326;18.772;2024-03-02T11:03:41;54.90;;;29.50;;
56824;SDS011;42705;50.326;18.772;2024-03-02T11:09:05;56.20;;;27.70;;
56824;SDS011;42705;50.326;18.772;2024-03-02T11:14:31;40.20;;;23.60;;
56824;SDS011;42705;50.326;18.772;2024-03-02T11:19:54;44.50;;;24.80;;
56824;SDS011;42705;50.326;18.772;2024-03-02T11:25:26;33.20;;;20.20;;
56824;SDS011;42705;50.326;18.772;2024-03-02T11:30:49;31.70;;;19.60;;
56824;SDS011;42705;50.326;18.772;2024-03-02T11:36:12;36.30;;;21.00;;
56824;SDS011;42705;50.326;18.772;2024-03-02T11:41:34;32.90;;;18.30;;
56824;SDS011;42705;50.326;18.772;2024-03-02T11:47:02;27.40;;;17.10;;
56824;SDS011;42705;50.326;18.772;2024-03-02T12:03:14;36.10;;;19.40;;
56824;SDS011;42705;50.326;18.772;2024-03-02T12:08:37;31.40;;;20.30;;
56824;SDS011;42705;50.326;18.772;2024-03-02T12:13:59;30.20;;;17.10;;
56824;SDS011;42705;50.326;18.772;2024-03-02T12:19:21;28.10;;;18.00;;
56824;SDS011;42705;50.326;18.772;2024-03-02T12:24:43;26.10;;;16.30;;
56824;SDS011;42705;50.326;18.772;2024-03-02T12:30:09;20.90;;;14.00;;
56824;SDS011;42705;50.326;18.772;2024-03-02T12:35:32;29.60;;;15.20;;
56824;SDS011;42705;50.326;18.772;2024-03-02T12:40:54;27.70;;;15.10;;
56824;SDS011;42705;50.326;18.772;2024-03-02T12:46:16;20.70;;;13.90;;
56824;SDS011;42705;50.326;18.772;2024-03-02T12:51:41;23.10;;;16.50;;
56824;SDS011;42705;50.326;18.772;2024-03-02T12:57:04;24.70;;;15.90;;
56824;SDS011;42705;50.326;18.772;2024-03-02T13:02:30;23.90;;;15.30;;
56824;SDS011;42705;50.326;18.772;2024-03-02T13:07:52;26.80;;;17.20;;
56824;SDS011;42705;50.326;18.772;2024-03-02T13:13:15;30.50;;;17.40;;
56824;SDS011;42705;50.326;18.772;2024-03-02T13:18:40;29.60;;;16.70;;
56824;SDS011;42705;50.326;18.772;2024-03-02T13:24:03;31.20;;;18.50;;
56824;SDS011;42705;50.326;18.772;2024-03-02T13:29:26;25.50;;;16.00;;
56824;SDS011;42705;50.326;18.772;2024-03-02T13:34:49;27.30;;;15.40;;
56824;SDS011;42705;50.326;18.772;2024-03-02T13:45:34;30.40;;;17.40;;
56824;SDS011;42705;50.326;18.772;2024-03-02T13:50:56;23.80;;;14.90;;
56824;SDS011;42705;50.326;18.772;2024-03-02T13:56:18;29.10;;;18.10;;
56824;SDS011;42705;50.326;18.772;2024-03-02T14:01:40;28.50;;;18.40;;
56824;SDS011;42705;50.326;18.772;2024-03-02T14:07:02;32.70;;;19.30;;
56824;SDS011;42705;50.326;18.772;2024-03-02T14:12:25;29.10;;;19.00;;
56824;SDS011;42705;50.326;18.772;2024-03-02T14:17:47;31.90;;;20.00;;
56824;SDS011;42705;50.326;18.772;2024-03-02T14:23:09;38.20;;;23.20;;
56824;SDS011;42705;50.326;18.772;2024-03-02T14:33:54;33.10;;;21.60;;
56824;SDS011;42705;50.326;18.772;2024-03-02T14:39:16;36.20;;;22.80;;
56824;SDS011;42705;50.326;18.772;2024-03-02T14:44:38;33.50;;;22.10;;
56824;SDS011;42705;50.326;18.772;2024-03-02T14:50:04;38.10;;;21.90;;
56824;SDS011;42705;50.326;18.772;2024-03-02T14:55:30;38.90;;;23.00;;
56824;SDS011;42705;50.326;18.772;2024-03-02T15:00:52;47.40;;;29.40;;
56824;SDS011;42705;50.326;18.772;2024-03-02T15:06:14;37.90;;;22.90;;
56824;SDS011;42705;50.326;18.772;2024-03-02T15:11:36;26.20;;;16.40;;
56824;SDS011;42705;50.326;18.772;2024-03-02T15:16:59;28.20;;;17.70;;
56824;SDS011;42705;50.326;18.772;2024-03-02T15:22:21;28.80;;;18.40;;
56824;SDS011;42705;50.326;18.772;2024-03-02T15:27:43;29.70;;;19.10;;
56824;SDS011;42705;50.326;18.772;2024-03-02T15:33:05;30.30;;;18.90;;
56824;SDS011;42705;50.326;18.772;2024-03-02T15:38:27;27.70;;;18.50;;
56824;SDS011;42705;50.326;18.772;2024-03-02T15:43:49;28.80;;;18.20;;
56824;SDS011;42705;50.326;18.772;2024-03-02T15:49:11;27.40;;;18.70;;
56824;SDS011;42705;50.326;18.772;2024-03-02T15:54:33;28.10;;;17.20;;
56824;SDS011;42705;50.326;18.772;2024-03-02T15:59:55;29.00;;;17.90;;
56824;SDS011;42705;50.326;18.772;2024-03-02T16:05:17;29.60;;;19.50;;
56824;SDS011;42705;50.326;18.772;2024-03-02T16:16:02;40.80;;;24.10;;
56824;SDS011;42705;50.326;18.772;2024-03-02T16:26:47;48.50;;;29.30;;
56824;SDS011;42705;50.326;18.772;2024-03-02T16:32:09;53.20;;;31.30;;
56824;SDS011;42705;50.326;18.772;2024-03-02T16:37:31;48.40;;;28.60;;
56824;SDS011;42705;50.326;18.772;2024-03-02T16:48:15;62.70;;;34.00;;
56824;SDS011;42705;50.326;18.772;2024-03-02T16:53:38;63.70;;;33.10;;
56824;SDS011;42705;50.326;18.772;2024-03-02T16:59:01;50.70;;;30.30;;
56824;SDS011;42705;50.326;18.772;2024-03-02T17:04:23;46.00;;;26.90;;
56824;SDS011;42705;50.326;18.772;2024-03-02T17:09:45;41.40;;;25.20;;
56824;SDS011;42705;50.326;18.772;2024-03-02T17:15:07;44.10;;;25.60;;
56824;SDS011;42705;50.326;18.772;2024-03-02T17:20:29;42.20;;;25.20;;
56824;SDS011;42705;50.326;18.772;2024-03-02T17:25:51;41.40;;;25.00;;
56824;SDS011;42705;50.326;18.772;2024-03-02T17:31:13;41.70;;;25.80;;
56824;SDS011;42705;50.326;18.772;2024-03-02T17:36:35;43.80;;;27.70;;
56824;SDS011;42705;50.326;18.772;2024-03-02T17:41:57;49.40;;;30.80;;
56824;SDS011;42705;50.326;18.772;2024-03-02T17:47:19;63.40;;;36.20;;
56824;SDS011;42705;50.326;18.772;2024-03-02T17:52:41;75.30;;;43.50;;
56824;SDS011;42705;50.326;18.772;2024-03-02T17:58:12;92.50;;;52.90;;
56824;SDS011;42705;50.326;18.772;2024-03-02T18:03:34;111.30;;;62.90;;
56824;SDS011;42705;50.326;18.772;2024-03-02T18:08:56;113.30;;;60.60;;
56824;SDS011;42705;50.326;18.772;2024-03-02T18:14:18;137.60;;;72.70;;
56824;SDS011;42705;50.326;18.772;2024-03-02T18:19:41;145.60;;;78.70;;
56824;SDS011;42705;50.326;18.772;2024-03-02T18:25:03;168.10;;;87.60;;
56824;SDS011;42705;50.326;18.772;2024-03-02T18:30:25;172.80;;;90.00;;
56824;SDS011;42705;50.326;18.772;2024-03-02T18:35:47;177.80;;;98.10;;
56824;SDS011;42705;50.326;18.772;2024-03-02T18:41:09;171.50;;;90.90;;
56824;SDS011;42705;50.326;18.772;2024-03-02T18:46:31;142.70;;;76.50;;
56824;SDS011;42705;50.326;18.772;2024-03-02T18:51:53;157.70;;;85.10;;
56824;SDS011;42705;50.326;18.772;2024-03-02T18:57:15;165.10;;;91.00;;
56824;SDS011;42705;50.326;18.772;2024-03-02T19:02:38;162.10;;;88.60;;
56824;SDS011;42705;50.326;18.772;2024-03-02T19:08:00;163.10;;;87.00;;
56824;SDS011;42705;50.326;18.772;2024-03-02T19:13:22;164.30;;;89.60;;
56824;SDS011;42705;50.326;18.772;2024-03-02T19:18:45;176.50;;;100.20;;
56824;SDS011;42705;50.326;18.772;2024-03-02T19:24:07;178.10;;;93.30;;
56824;SDS011;42705;50.326;18.772;2024-03-02T19:29:29;169.10;;;94.10;;
56824;SDS011;42705;50.326;18.772;2024-03-02T19:34:51;165.50;;;87.80;;
56824;SDS011;42705;50.326;18.772;2024-03-02T19:40:13;170.70;;;90.70;;
56824;SDS011;42705;50.326;18.772;2024-03-02T19:45:38;165.30;;;86.20;;
56824;SDS011;42705;50.326;18.772;2024-03-02T19:51:02;150.70;;;82.70;;
56824;SDS011;42705;50.326;18.772;2024-03-02T19:56:25;145.80;;;77.80;;
56824;SDS011;42705;50.326;18.772;2024-03-02T20:01:49;118.20;;;67.40;;
56824;SDS011;42705;50.326;18.772;2024-03-02T20:07:11;110.50;;;64.40;;
56824;SDS011;42705;50.326;18.772;2024-03-02T20:12:34;117.20;;;64.30;;
56824;SDS011;42705;50.326;18.772;2024-03-02T20:17:56;111.30;;;60.80;;
56824;SDS011;42705;50.326;18.772;2024-03-02T20:23:18;110.30;;;61.00;;
56824;SDS011;42705;50.326;18.772;2024-03-02T20:28:40;106.70;;;61.20;;
56824;SDS011;42705;50.326;18.772;2024-03-02T20:34:04;98.30;;;56.30;;
56824;SDS011;42705;50.326;18.772;2024-03-02T20:39:26;107.60;;;61.10;;
56824;SDS011;42705;50.326;18.772;2024-03-02T20:44:49;104.90;;;61.80;;
56824;SDS011;42705;50.326;18.772;2024-03-02T20:50:11;98.90;;;55.80;;
56824;SDS011;42705;50.326;18.772;2024-03-02T20:55:34;106.90;;;60.00;;
56824;SDS011;42705;50.326;18.772;2024-03-02T21:01:01;117.50;;;64.40;;
56824;SDS011;42705;50.326;18.772;2024-03-02T21:06:26;99.00;;;55.70;;
56824;SDS011;42705;50.326;18.772;2024-03-02T21:11:48;109.20;;;58.70;;
56824;SDS011;42705;50.326;18.772;2024-03-02T21:17:10;95.70;;;51.80;;
56824;SDS011;42705;50.326;18.772;2024-03-02T21:22:32;93.50;;;53.40;;
56824;SDS011;42705;50.326;18.772;2024-03-02T21:27:54;83.40;;;49.40;;
56824;SDS011;42705;50.326;18.772;2024-03-02T21:33:16;91.90;;;51.10;;
56824;SDS011;42705;50.326;18.772;2024-03-02T21:38:38;94.50;;;51.10;;
56824;SDS011;42705;50.326;18.772;2024-03-02T21:44:00;79.30;;;44.00;;
56824;SDS011;42705;50.326;18.772;2024-03-02T21:49:22;82.90;;;47.60;;
56824;SDS011;42705;50.326;18.772;2024-03-02T21:54:44;85.00;;;47.80;;
56824;SDS011;42705;50.326;18.772;2024-03-02T22:05:35;87.20;;;50.00;;
56824;SDS011;42705;50.326;18.772;2024-03-02T22:10:57;85.80;;;48.40;;
56824;SDS011;42705;50.326;18.772;2024-03-02T22:16:19;84.90;;;45.80;;
56824;SDS011;42705;50.326;18.772;2024-03-02T22:21:41;73.70;;;42.90;;
56824;SDS011;42705;50.326;18.772;2024-03-02T22:27:03;75.80;;;43.60;;
56824;SDS011;42705;50.326;18.772;2024-03-02T22:32:26;77.90;;;44.10;;
56824;SDS011;42705;50.326;18.772;2024-03-02T22:37:48;78.00;;;42.30;;
56824;SDS011;42705;50.326;18.772;2024-03-02T22:43:10;73.70;;;41.80;;
56824;SDS011;42705;50.326;18.772;2024-03-02T22:48:33;79.00;;;43.30;;
56824;SDS011;42705;50.326;18.772;2024-03-02T22:53:55;75.20;;;45.30;;
56824;SDS011;42705;50.326;18.772;2024-03-02T22:59:16;81.30;;;45.10;;
56824;SDS011;42705;50.326;18.772;2024-03-02T23:04:38;70.30;;;38.00;;
56824;SDS011;42705;50.326;18.772;2024-03-02T23:10:00;72.00;;;40.00;;
56824;SDS011;42705;50.326;18.772;2024-03-02T23:15:22;65.40;;;36.50;;
56824;SDS011;42705;50.326;18.772;2024-03-02T23:20:50;64.70;;;36.00;;
56824;SDS011;42705;50.326;18.772;2024-03-02T23:26:12;65.80;;;40.20;;
56824;SDS011;42705;50.326;18.772;2024-03-02T23:31:34;55.60;;;31.90;;
56824;SDS011;42705;50.326;18.772;2024-03-02T23:36:56;58.90;;;34.90;;
56824;SDS011;42705;50.326;18.772;2024-03-02T23:42:18;53.80;;;31.20;;
56824;SDS011;42705;50.326;18.772;2024-03-02T23:47:40;50.40;;;29.50;;
56824;SDS011;42705;50.326;18.772;2024-03-02T23:53:02;47.40;;;28.90;;
56824;SDS011;42705;50.326;18.772;2024-03-02T23:58:25;54.10;;;33.10;;
